Time;durP1;ratioP1;P1;durP2;ratioP2;P2;SDS_P1;SDS_P2;PMS_P1;PMS_P2;Temp;Humidity;BMP_temperature;BMP_pressure;BME280_temperature;BME280_humidity;BME280_pressure;Samples;Min_cycle;Max_cycle;Signal;HPM_P1;HPM_P2
2022/04/28 00:00:07;;;;;;;18.45;9.30;;;4.30;99.90;;;;;;5111691;28;20503;-66
2022/04/28 00:02:34;;;;;;;14.98;8.88;;;4.30;99.90;;;;;;5109598;28;20047;-66
2022/04/28 00:05:00;;;;;;;14.52;8.57;;;4.30;99.90;;;;;;5113038;28;20040;-66
2022/04/28 00:07:27;;;;;;;15.02;8.80;;;4.20;99.90;;;;;;5111701;28;20092;-66
2022/04/28 00:09:53;;;;;;;15.10;10.13;;;4.20;99.90;;;;;;5111697;28;20054;-66
2022/04/28 00:12:18;;;;;;;15.27;9.10;;;4.20;99.90;;;;;;5113205;28;20046;-66
2022/04/28 00:14:44;;;;;;;13.98;9.00;;;4.20;99.90;;;;;;5113145;28;20039;-66
2022/04/28 00:17:10;;;;;;;12.77;8.00;;;4.20;99.90;;;;;;5113050;28;20085;-66
2022/04/28 00:19:37;;;;;;;12.57;8.23;;;4.20;99.90;;;;;;5113072;28;20100;-66
2022/04/28 00:22:03;;;;;;;13.82;7.78;;;4.20;99.90;;;;;;5112797;28;20040;-66
2022/04/28 00:24:28;;;;;;;11.38;7.10;;;4.20;99.90;;;;;;5116097;28;20030;-66
2022/04/28 00:26:54;;;;;;;15.90;9.50;;;4.30;99.90;;;;;;5115579;28;20398;-66
2022/04/28 00:29:21;;;;;;;13.38;8.25;;;4.30;99.90;;;;;;5116798;28;20035;-66
2022/04/28 00:31:47;;;;;;;17.33;9.60;;;4.40;99.90;;;;;;5096562;28;20119;-66
2022/04/28 00:34:13;;;;;;;17.02;8.48;;;4.40;99.90;;;;;;5115312;28;20039;-66
2022/04/28 00:36:39;;;;;;;11.73;7.53;;;4.50;99.90;;;;;;5116476;28;20073;-66
2022/04/28 00:39:05;;;;;;;12.60;8.30;;;4.40;99.90;;;;;;5116392;28;20031;-66
2022/04/28 00:41:31;;;;;;;14.07;8.32;;;4.40;99.90;;;;;;5115300;28;20078;-66
2022/04/28 00:43:57;;;;;;;14.77;8.77;;;4.40;99.90;;;;;;5115381;28;20525;-66
2022/04/28 00:46:23;;;;;;;14.20;8.63;;;4.40;99.90;;;;;;5098144;28;20035;-66
2022/04/28 00:51:37;;;;;;;19.35;9.82;;;4.40;99.90;;;;;;5116139;28;20044;-66
2022/04/28 00:54:04;;;;;;;19.53;9.83;;;4.40;99.90;;;;;;5115232;28;20039;-66
2022/04/28 00:56:30;;;;;;;18.85;9.73;;;4.50;99.90;;;;;;5116303;28;20046;-66
2022/04/28 00:59:04;;;;;;;19.48;10.85;;;4.60;99.90;;;;;;5115166;28;20422;-66
2022/04/28 01:01:30;;;;;;;19.50;9.85;;;4.70;99.90;;;;;;5115995;28;20043;-66
2022/04/28 01:03:56;;;;;;;19.35;10.00;;;4.70;99.90;;;;;;5113749;28;20028;-66
2022/04/28 01:06:22;;;;;;;17.35;10.23;;;4.80;99.90;;;;;;5114929;28;20474;-66
2022/04/28 01:08:48;;;;;;;15.50;10.35;;;4.80;99.90;;;;;;5114947;28;20043;-66
2022/04/28 01:11:18;;;;;;;20.02;10.07;;;4.80;99.90;;;;;;5114582;28;20039;-66
2022/04/28 01:13:44;;;;;;;17.33;9.60;;;4.80;99.90;;;;;;5114549;28;20086;-66
2022/04/28 01:16:13;;;;;;;16.60;10.93;;;4.90;99.90;;;;;;5114476;28;20096;-66
2022/04/28 01:18:40;;;;;;;16.25;9.95;;;5.00;99.90;;;;;;5115651;28;20108;-66
2022/04/28 01:21:09;;;;;;;17.67;9.90;;;5.00;99.90;;;;;;5114327;28;20051;-66
2022/04/28 01:23:36;;;;;;;18.42;9.50;;;5.00;99.90;;;;;;5114369;28;20124;-66
2022/04/28 01:26:03;;;;;;;16.63;9.45;;;5.10;99.90;;;;;;5115185;28;20137;-66
2022/04/28 01:28:31;;;;;;;16.35;10.13;;;5.10;99.90;;;;;;5115472;28;20061;-66
2022/04/28 01:31:00;;;;;;;14.23;8.82;;;5.20;99.90;;;;;;5115173;28;20048;-66
2022/04/28 01:33:26;;;;;;;14.65;9.50;;;5.20;99.90;;;;;;5113424;28;20043;-66
2022/04/28 01:35:52;;;;;;;16.83;8.93;;;5.30;99.90;;;;;;5114760;27;20101;-66
2022/04/28 01:38:17;;;;;;;16.10;9.48;;;5.30;99.90;;;;;;5115232;28;20041;-66
2022/04/28 01:40:44;;;;;;;16.45;9.57;;;5.40;99.90;;;;;;5114060;28;20044;-66
2022/04/28 01:43:10;;;;;;;17.42;10.02;;;5.40;99.90;;;;;;5113851;28;20069;-66
2022/04/28 01:45:36;;;;;;;15.82;9.00;;;5.40;99.90;;;;;;5114998;28;20123;-66
2022/04/28 01:48:02;;;;;;;14.20;9.20;;;5.50;99.90;;;;;;5114859;28;20043;-66
2022/04/28 01:50:28;;;;;;;14.30;9.50;;;5.50;99.90;;;;;;5114086;28;20047;-66
2022/04/28 01:55:38;;;;;;;17.73;8.98;;;5.60;99.90;;;;;;5113736;28;20043;-66
2022/04/28 01:58:04;;;;;;;17.73;8.70;;;5.70;99.90;;;;;;5114894;28;20035;-66
2022/04/28 02:00:29;;;;;;;15.65;9.13;;;5.70;99.90;;;;;;5114847;28;20044;-66
2022/04/28 02:02:55;;;;;;;11.85;8.35;;;5.80;99.90;;;;;;5111515;28;20064;-66
2022/04/28 02:05:21;;;;;;;14.20;8.70;;;5.80;99.90;;;;;;5113682;28;20040;-66
2022/04/28 02:07:47;;;;;;;17.05;9.18;;;5.80;99.90;;;;;;5114668;28;20047;-66
2022/04/28 02:10:13;;;;;;;19.83;10.25;;;5.90;99.90;;;;;;5113485;28;20040;-66
2022/04/28 02:12:39;;;;;;;14.23;9.13;;;5.90;99.90;;;;;;5114580;28;20106;-66
2022/04/28 02:15:05;;;;;;;19.40;9.70;;;5.90;99.90;;;;;;5113267;28;20403;-66
2022/04/28 02:17:35;;;;;;;13.90;8.75;;;6.00;99.90;;;;;;5114762;28;20078;-66
2022/04/28 02:20:10;;;;;;;14.27;9.20;;;6.00;99.90;;;;;;5113308;28;20036;-66
2022/04/28 02:22:36;;;;;;;14.02;8.57;;;6.00;99.90;;;;;;5110126;28;20055;-66
2022/04/28 02:25:03;;;;;;;13.45;8.02;;;6.10;99.90;;;;;;5113454;28;20135;-67
2022/04/28 02:27:29;;;;;;;16.30;9.68;;;6.10;99.90;;;;;;5114100;28;20032;-66
2022/04/28 02:29:55;;;;;;;11.50;8.45;;;6.20;99.90;;;;;;5113358;28;20039;-66
2022/04/28 02:32:21;;;;;;;15.85;8.90;;;6.20;99.90;;;;;;5111014;28;20395;-66
2022/04/28 02:34:47;;;;;;;15.38;8.25;;;6.30;99.90;;;;;;5114357;28;20384;-66
2022/04/28 02:37:13;;;;;;;16.67;9.10;;;6.30;99.90;;;;;;5114108;28;20044;-66
2022/04/28 02:39:40;;;;;;;16.33;9.77;;;6.30;99.90;;;;;;5112753;28;20047;-66
2022/04/28 02:42:06;;;;;;;12.95;7.72;;;6.40;99.90;;;;;;5112683;28;20047;-66
2022/04/28 02:44:32;;;;;;;15.73;8.05;;;6.40;99.90;;;;;;5113019;28;20046;-66
2022/04/28 02:46:58;;;;;;;19.08;8.73;;;6.50;99.90;;;;;;5113329;27;20458;-66
2022/04/28 02:49:24;;;;;;;15.45;8.00;;;6.50;99.90;;;;;;5113808;28;20127;-66
2022/04/28 02:51:50;;;;;;;14.80;7.38;;;6.50;99.90;;;;;;5112664;28;20069;-66
2022/04/28 02:54:16;;;;;;;15.20;7.90;;;6.50;99.90;;;;;;5113798;28;20050;-66
2022/04/28 02:56:41;;;;;;;12.70;7.88;;;6.60;99.90;;;;;;5112550;28;20054;-66
2022/04/28 02:59:08;;;;;;;15.80;8.20;;;6.60;99.90;;;;;;5109725;28;20054;-66
2022/04/28 03:01:34;;;;;;;14.88;7.22;;;6.60;99.90;;;;;;5112684;28;20039;-66
2022/04/28 03:04:00;;;;;;;13.93;7.65;;;6.70;99.90;;;;;;5111477;28;20047;-66
2022/04/28 03:11:55;;;;;;;10.32;6.10;;;6.70;99.90;;;;;;5112389;28;20052;-66
2022/04/28 03:14:21;;;;;;;12.65;7.40;;;6.60;99.90;;;;;;5113653;28;20101;-67
2022/04/28 03:16:47;;;;;;;11.90;6.82;;;6.70;99.90;;;;;;5113611;28;20039;-66
2022/04/28 03:19:13;;;;;;;15.80;7.10;;;6.60;99.90;;;;;;5113597;28;20035;-66
2022/04/28 03:21:39;;;;;;;19.42;6.85;;;6.60;99.90;;;;;;5112089;28;20055;-67
2022/04/28 03:24:05;;;;;;;15.13;6.05;;;6.60;99.90;;;;;;5112495;28;20039;-66
2022/04/28 03:26:32;;;;;;;12.85;6.63;;;6.60;99.90;;;;;;5113362;28;20044;-67
2022/04/28 03:28:58;;;;;;;13.10;7.03;;;6.60;99.90;;;;;;5112145;28;20047;-66
2022/04/28 03:31:24;;;;;;;14.07;5.85;;;6.70;99.90;;;;;;5112291;28;20234;-66
2022/04/28 03:33:50;;;;;;;13.40;6.25;;;6.70;99.90;;;;;;5111197;28;20078;-66
2022/04/28 03:39:04;;;;;;;13.40;6.63;;;6.60;99.90;;;;;;5113365;28;20047;-67
2022/04/28 03:41:30;;;;;;;8.25;5.65;;;6.60;99.90;;;;;;5094849;28;20048;-66
2022/04/28 03:43:56;;;;;;;12.27;6.10;;;6.60;99.90;;;;;;5094965;28;20448;-66
2022/04/28 03:46:22;;;;;;;13.32;6.03;;;6.60;99.90;;;;;;5111944;28;20040;-66
2022/04/28 03:48:48;;;;;;;9.18;6.40;;;6.60;99.90;;;;;;5112840;28;20048;-66
2022/04/28 03:51:14;;;;;;;12.05;6.97;;;6.60;99.90;;;;;;5112310;28;20349;-66
2022/04/28 03:53:40;;;;;;;11.43;6.60;;;6.60;99.90;;;;;;5113107;28;20043;-66
2022/04/28 03:56:06;;;;;;;12.20;7.15;;;6.60;99.90;;;;;;5112119;28;20043;-66
2022/04/28 03:58:32;;;;;;;12.13;6.10;;;6.70;99.90;;;;;;5114986;28;20484;-66
2022/04/28 04:00:59;;;;;;;12.65;6.55;;;6.70;99.90;;;;;;5117243;28;20039;-66
2022/04/28 04:03:25;;;;;;;11.35;6.97;;;6.70;99.90;;;;;;5113701;28;20042;-66
2022/04/28 04:05:50;;;;;;;10.75;7.00;;;6.70;99.90;;;;;;5115887;28;20031;-67
2022/04/28 04:08:16;;;;;;;10.77;7.32;;;6.70;99.90;;;;;;5115716;28;20043;-67
2022/04/28 04:10:42;;;;;;;15.32;6.65;;;6.70;99.90;;;;;;5115828;28;20043;-66
2022/04/28 04:13:08;;;;;;;12.90;7.65;;;6.70;99.90;;;;;;5115742;28;20046;-66
2022/04/28 04:15:34;;;;;;;15.13;7.70;;;6.70;99.90;;;;;;5117052;28;20085;-66
2022/04/28 04:18:01;;;;;;;10.82;7.10;;;6.70;99.90;;;;;;5116577;28;20044;-66
2022/04/28 04:20:27;;;;;;;11.35;7.20;;;6.70;99.90;;;;;;5114527;28;20100;-66
2022/04/28 04:22:54;;;;;;;14.38;7.72;;;6.70;99.90;;;;;;5115881;27;20040;-66
2022/04/28 04:25:20;;;;;;;13.00;7.40;;;6.80;99.90;;;;;;5115889;27;20399;-66
2022/04/28 04:27:46;;;;;;;13.73;7.38;;;6.80;99.90;;;;;;5115784;28;20727;-66
2022/04/28 04:32:57;;;;;;;14.07;7.70;;;6.80;99.90;;;;;;5112283;28;20058;-66
2022/04/28 04:35:24;;;;;;;11.75;8.40;;;6.80;99.90;;;;;;5114260;28;20062;-67
2022/04/28 04:37:53;;;;;;;12.90;7.32;;;6.80;99.90;;;;;;5114522;28;20058;-66
2022/04/28 04:40:19;;;;;;;17.30;7.57;;;6.80;99.90;;;;;;5114330;28;20039;-66
2022/04/28 04:42:45;;;;;;;15.77;8.93;;;6.80;99.90;;;;;;5114238;28;20506;-66
2022/04/28 04:45:11;;;;;;;13.00;7.45;;;6.80;99.90;;;;;;5114269;28;20078;-67
2022/04/28 04:47:37;;;;;;;12.90;7.57;;;6.80;99.90;;;;;;5115276;28;20036;-66
2022/04/28 04:50:05;;;;;;;11.80;7.85;;;6.90;99.90;;;;;;5096799;28;20048;-66
2022/04/28 04:52:31;;;;;;;14.70;7.93;;;6.90;99.90;;;;;;5114126;28;20039;-66
2022/04/28 04:54:58;;;;;;;14.65;8.27;;;6.90;99.90;;;;;;5114157;28;20515;-67
2022/04/28 04:57:24;;;;;;;13.25;7.38;;;6.90;99.90;;;;;;5114041;28;20118;-66
2022/04/28 04:59:50;;;;;;;14.48;7.78;;;7.00;99.90;;;;;;5096741;28;20047;-66
2022/04/28 05:02:16;;;;;;;12.13;7.28;;;7.00;99.90;;;;;;5112774;28;20044;-66
2022/04/28 05:04:42;;;;;;;11.70;8.27;;;7.00;99.90;;;;;;5115072;28;20036;-66
2022/04/28 05:07:09;;;;;;;15.70;8.50;;;7.10;99.90;;;;;;5115095;28;20027;-66
2022/04/28 05:09:37;;;;;;;15.75;7.60;;;7.10;99.90;;;;;;5095955;28;20040;-67
2022/04/28 05:12:04;;;;;;;14.25;7.55;;;7.10;99.90;;;;;;5113675;28;20507;-66
2022/04/28 05:14:30;;;;;;;12.30;6.68;;;7.20;99.90;;;;;;5096439;28;20051;-67
2022/04/28 05:16:57;;;;;;;14.07;7.30;;;7.20;99.90;;;;;;5096508;28;20039;-66
2022/04/28 05:19:24;;;;;;;14.50;8.15;;;7.30;99.90;;;;;;5113697;28;20043;-67
2022/04/28 05:21:50;;;;;;;11.85;7.45;;;7.30;99.90;;;;;;5114795;27;20381;-67
2022/04/28 05:24:16;;;;;;;16.58;6.90;;;7.30;99.90;;;;;;5114630;28;20418;-67
2022/04/28 05:26:42;;;;;;;11.98;8.00;;;7.40;99.90;;;;;;5113550;28;20043;-67
2022/04/28 05:29:08;;;;;;;11.18;7.10;;;7.50;99.90;;;;;;5114658;28;20050;-67
2022/04/28 05:31:34;;;;;;;9.45;6.63;;;7.50;99.90;;;;;;5113271;28;20039;-67
2022/04/28 05:34:00;;;;;;;12.52;6.63;;;7.60;99.90;;;;;;5111544;28;20043;-67
2022/04/28 05:36:28;;;;;;;20.23;8.90;;;7.60;99.90;;;;;;5114493;28;20054;-67
2022/04/28 05:38:56;;;;;;;16.17;7.65;;;7.70;99.90;;;;;;5114754;28;20043;-67
2022/04/28 05:41:24;;;;;;;13.15;7.68;;;7.70;99.90;;;;;;5114253;28;20067;-67
2022/04/28 05:46:34;;;;;;;13.05;7.72;;;7.90;99.90;;;;;;5114238;27;20495;-67
2022/04/28 05:49:01;;;;;;;11.93;6.93;;;7.90;99.90;;;;;;5112871;28;20217;-67
2022/04/28 05:51:26;;;;;;;13.57;8.50;;;8.00;99.90;;;;;;5114122;28;20568;-67
2022/04/28 05:53:52;;;;;;;13.25;7.43;;;8.00;99.90;;;;;;5113148;28;20079;-67
2022/04/28 05:56:18;;;;;;;12.80;6.95;;;8.10;99.90;;;;;;5112670;28;20515;-67
2022/04/28 05:58:44;;;;;;;17.63;7.13;;;8.10;99.90;;;;;;5113216;28;20051;-67
2022/04/28 06:01:10;;;;;;;12.18;6.70;;;8.20;99.90;;;;;;5113743;28;20039;-67
2022/04/28 06:03:35;;;;;;;15.95;7.45;;;8.20;99.90;;;;;;5110289;28;20119;-66
2022/04/28 06:06:01;;;;;;;15.98;7.57;;;8.20;99.90;;;;;;5113889;28;20040;-67
2022/04/28 06:08:27;;;;;;;13.98;6.45;;;8.20;99.90;;;;;;5109497;28;20040;-67
2022/04/28 06:10:53;;;;;;;14.52;7.22;;;8.30;99.90;;;;;;5112451;28;20047;-67
2022/04/28 06:13:19;;;;;;;17.20;7.35;;;8.30;99.90;;;;;;5112452;28;20040;-67
2022/04/28 06:15:44;;;;;;;11.70;6.78;;;8.40;99.90;;;;;;5113556;28;20083;-67
2022/04/28 06:18:10;;;;;;;13.85;7.40;;;8.40;99.90;;;;;;5095653;28;20040;-67
2022/04/28 06:20:36;;;;;;;15.88;6.88;;;8.40;99.90;;;;;;5112322;28;20396;-67
2022/04/28 06:23:02;;;;;;;19.95;8.40;;;8.50;99.90;;;;;;5113885;28;20036;-67
2022/04/28 06:25:28;;;;;;;13.60;6.47;;;8.50;99.90;;;;;;5113661;28;20043;-67
2022/04/28 06:27:54;;;;;;;14.10;6.72;;;8.50;99.90;;;;;;5113851;28;20482;-67
2022/04/28 06:30:20;;;;;;;10.13;7.32;;;8.50;99.90;;;;;;5112941;28;20108;-67
2022/04/28 06:32:46;;;;;;;11.57;6.50;;;8.50;99.90;;;;;;5112157;28;20396;-67
2022/04/28 06:35:11;;;;;;;12.32;6.20;;;8.50;99.90;;;;;;5112822;28;20050;-67
2022/04/28 06:37:39;;;;;;;17.23;7.38;;;8.50;99.90;;;;;;5113900;28;20042;-67
2022/04/28 06:40:05;;;;;;;13.90;6.47;;;8.50;99.90;;;;;;5113667;28;20114;-67
2022/04/28 06:42:31;;;;;;;15.13;6.13;;;8.40;99.90;;;;;;5112815;28;20485;-66
2022/04/28 06:44:57;;;;;;;8.90;6.43;;;8.40;99.90;;;;;;5112061;28;20078;-67
2022/04/28 06:47:23;;;;;;;14.73;7.03;;;8.40;99.90;;;;;;5113148;28;20035;-66
2022/04/28 06:49:49;;;;;;;10.90;6.35;;;8.40;99.90;;;;;;5112784;28;20106;-67
2022/04/28 06:52:15;;;;;;;17.52;7.10;;;8.50;99.90;;;;;;5112896;28;20055;-66
2022/04/28 06:54:41;;;;;;;18.70;7.70;;;8.50;99.90;;;;;;5111652;28;20126;-66
2022/04/28 06:57:06;;;;;;;17.95;7.65;;;8.50;99.90;;;;;;5112007;28;20130;-66
2022/04/28 06:59:32;;;;;;;12.27;6.68;;;8.60;99.90;;;;;;5113028;28;20496;-67
2022/04/28 07:01:58;;;;;;;15.82;7.60;;;8.60;99.90;;;;;;5109025;28;20475;-67
2022/04/28 07:04:24;;;;;;;14.50;7.20;;;8.70;99.90;;;;;;5112883;28;20489;-66
2022/04/28 07:06:50;;;;;;;12.38;6.20;;;8.80;99.90;;;;;;5112677;28;20437;-66
2022/04/28 07:09:16;;;;;;;11.13;6.07;;;8.80;99.90;;;;;;5111793;28;20070;-66
2022/04/28 07:11:42;;;;;;;13.40;6.10;;;8.90;99.90;;;;;;5112571;28;20512;-67
2022/04/28 07:14:07;;;;;;;15.48;6.20;;;9.10;99.90;;;;;;5112760;28;20054;-67
2022/04/28 07:16:33;;;;;;;13.80;6.47;;;9.20;99.90;;;;;;5111273;28;20104;-67
2022/04/28 07:18:59;;;;;;;13.60;6.50;;;9.40;99.90;;;;;;5112482;28;20040;-67
2022/04/28 07:21:25;;;;;;;12.38;5.93;;;9.60;99.90;;;;;;5111304;28;20051;-67
2022/04/28 07:23:51;;;;;;;13.38;6.00;;;9.70;99.90;;;;;;5112770;28;20122;-67
2022/04/28 07:26:16;;;;;;;11.23;7.15;;;9.90;99.90;;;;;;5112403;28;20039;-67
2022/04/28 07:28:42;;;;;;;16.23;6.50;;;10.00;99.90;;;;;;5112107;28;20035;-67
2022/04/28 07:31:08;;;;;;;10.57;5.80;;;10.20;99.90;;;;;;5111888;28;20533;-64
2022/04/28 07:33:34;;;;;;;11.70;5.82;;;10.40;99.90;;;;;;5110690;28;20043;-64
2022/04/28 07:35:59;;;;;;;11.45;6.03;;;10.40;99.90;;;;;;5113226;28;20391;-65
2022/04/28 07:38:25;;;;;;;12.80;5.60;;;10.70;99.90;;;;;;5113287;28;20403;-65
2022/04/28 07:40:53;;;;;;;12.25;5.80;;;10.90;99.90;;;;;;5112912;28;20109;-65
2022/04/28 07:43:20;;;;;;;9.23;5.18;;;11.00;99.90;;;;;;5113480;28;20552;-65
2022/04/28 07:45:47;;;;;;;10.73;5.30;;;11.20;99.90;;;;;;5111773;28;20119;-65
2022/04/28 07:48:13;;;;;;;15.20;3.90;;;11.20;99.90;;;;;;5111715;28;20051;-67
2022/04/28 07:50:39;;;;;;;11.73;4.88;;;11.10;99.90;;;;;;5113197;28;20104;-65
2022/04/28 07:53:05;;;;;;;12.10;5.10;;;11.00;99.90;;;;;;5112102;28;20112;-64
2022/04/28 07:55:31;;;;;;;13.02;4.35;;;11.00;99.90;;;;;;5113318;28;20068;-65
2022/04/28 07:57:56;;;;;;;8.77;4.32;;;10.90;99.90;;;;;;5113165;28;20031;-65
2022/04/28 08:00:22;;;;;;;8.98;4.57;;;10.80;99.90;;;;;;5111907;28;20047;-64
2022/04/28 08:02:48;;;;;;;9.00;4.43;;;10.80;99.90;;;;;;5109592;28;20055;-64
2022/04/28 08:05:15;;;;;;;15.30;4.32;;;10.80;99.90;;;;;;5111986;28;20086;-63
2022/04/28 08:07:41;;;;;;;10.18;4.75;;;10.70;99.90;;;;;;5111710;28;20040;-63
2022/04/28 08:10:07;;;;;;;10.25;4.40;;;10.70;99.90;;;;;;5111650;28;20063;-64
2022/04/28 08:12:33;;;;;;;9.55;4.13;;;10.60;99.90;;;;;;5108984;28;20040;-64
2022/04/28 08:14:59;;;;;;;7.32;4.07;;;10.60;99.90;;;;;;5094745;28;20054;-64
2022/04/28 08:17:26;;;;;;;11.07;3.83;;;10.60;99.90;;;;;;5111698;28;20036;-63
2022/04/28 08:19:52;;;;;;;8.48;3.90;;;10.70;99.90;;;;;;5111583;28;20044;-63
2022/04/28 08:22:18;;;;;;;9.13;4.03;;;10.70;99.90;;;;;;5094511;28;20050;-64
2022/04/28 08:24:44;;;;;;;10.30;4.85;;;10.80;99.90;;;;;;5111671;28;20171;-64
2022/04/28 08:27:09;;;;;;;9.77;3.72;;;10.80;99.90;;;;;;5112975;28;20111;-64
2022/04/28 08:29:35;;;;;;;10.05;4.28;;;10.90;99.90;;;;;;5112867;28;20043;-63
2022/04/28 08:32:01;;;;;;;12.88;4.35;;;10.90;99.90;;;;;;5109576;28;20044;-63
2022/04/28 08:34:27;;;;;;;10.30;4.13;;;10.80;99.90;;;;;;5111777;28;20048;-64
2022/04/28 08:36:53;;;;;;;9.50;4.10;;;10.80;99.90;;;;;;5112985;28;20058;-63
2022/04/28 08:39:19;;;;;;;9.80;4.57;;;10.80;99.90;;;;;;5112991;28;20134;-64
2022/04/28 08:41:45;;;;;;;9.27;3.97;;;10.80;99.90;;;;;;5112765;28;20507;-65
2022/04/28 08:44:17;;;;;;;8.38;3.60;;;10.90;99.90;;;;;;5111739;28;20408;-65
2022/04/28 08:46:53;;;;;;;11.50;4.10;;;11.00;99.90;;;;;;5114969;28;20561;-65
2022/04/28 08:49:20;;;;;;;10.65;4.22;;;11.10;99.90;;;;;;5116039;27;20055;-64
2022/04/28 08:51:47;;;;;;;13.00;4.10;;;11.20;99.90;;;;;;5114964;28;20044;-65
2022/04/28 08:54:14;;;;;;;12.13;4.15;;;11.20;99.90;;;;;;5115237;28;20052;-65
2022/04/28 08:56:40;;;;;;;8.55;3.65;;;11.30;99.90;;;;;;5114976;28;20043;-65
2022/04/28 08:59:07;;;;;;;7.43;3.30;;;11.40;99.90;;;;;;5114992;28;20096;-65
2022/04/28 09:01:33;;;;;;;10.68;2.97;;;11.50;99.90;;;;;;5115877;28;20065;-65
2022/04/28 09:04:01;;;;;;;8.20;3.03;;;11.50;99.90;;;;;;5112582;28;20036;-65
2022/04/28 09:06:31;;;;;;;8.38;3.28;;;11.50;99.90;;;;;;5115001;28;20028;-65
2022/04/28 09:08:58;;;;;;;8.82;2.60;;;11.60;99.90;;;;;;5115957;28;20483;-65
2022/04/28 09:11:27;;;;;;;7.72;2.90;;;11.70;99.90;;;;;;5097920;28;20130;-65
2022/04/28 09:14:09;;;;;;;7.50;3.20;;;11.70;99.90;;;;;;5115878;28;20040;-65
2022/04/28 09:16:43;;;;;;;9.13;3.85;;;11.80;99.90;;;;;;5114736;28;20039;-66
2022/04/28 09:19:34;;;;;;;6.75;2.50;;;11.80;99.90;;;;;;5114749;28;20119;-66
2022/04/28 09:22:12;;;;;;;7.15;2.78;;;11.90;99.90;;;;;;5110345;28;20039;-65
2022/04/28 09:24:43;;;;;;;8.35;2.95;;;11.80;99.90;;;;;;5114165;28;20372;-65
2022/04/28 09:27:09;;;;;;;9.73;3.08;;;11.90;99.90;;;;;;5114107;28;20044;-66
2022/04/28 09:29:39;;;;;;;7.70;2.88;;;12.00;99.90;;;;;;5114074;28;20043;-66
2022/04/28 09:32:15;;;;;;;10.30;3.25;;;12.00;99.90;;;;;;5113048;28;20035;-66
2022/04/28 09:34:49;;;;;;;7.57;2.88;;;11.90;99.90;;;;;;5115655;28;20035;-66
2022/04/28 09:37:19;;;;;;;8.98;3.00;;;11.80;99.90;;;;;;5111061;28;20039;-66
2022/04/28 09:42:39;;;;;;;6.90;2.63;;;11.70;99.90;;;;;;5113676;28;20463;-67
2022/04/28 09:45:06;;;;;;;6.88;2.72;;;11.70;99.90;;;;;;5096892;28;20043;-67
2022/04/28 09:47:36;;;;;;;5.07;2.28;;;11.70;99.90;;;;;;5115036;28;20036;-67
2022/04/28 09:50:16;;;;;;;12.52;2.92;;;11.70;99.90;;;;;;5115291;28;20052;-65
2022/04/28 09:52:43;;;;;;;5.07;2.55;;;11.80;99.90;;;;;;5112919;28;20050;-67
2022/04/28 09:55:10;;;;;;;9.73;3.00;;;11.90;99.90;;;;;;5094705;28;20353;-67
2022/04/28 09:57:36;;;;;;;9.55;3.03;;;11.90;99.90;;;;;;5093000;28;20499;-67
2022/04/28 10:00:04;;;;;;;6.32;2.70;;;11.80;99.90;;;;;;5093579;28;20046;-67
2022/04/28 10:02:30;;;;;;;6.43;2.95;;;11.80;99.90;;;;;;5091062;28;20067;-67
2022/04/28 10:04:56;;;;;;;6.63;2.08;;;12.00;99.90;;;;;;5094466;28;20065;-67
2022/04/28 10:07:23;;;;;;;10.90;3.20;;;12.00;99.90;;;;;;5093076;28;20050;-67
2022/04/28 10:09:52;;;;;;;5.68;2.50;;;12.10;99.90;;;;;;5093895;28;20136;-67
2022/04/28 10:12:20;;;;;;;9.48;2.88;;;12.30;99.90;;;;;;5093045;28;20097;-67
2022/04/28 10:14:48;;;;;;;8.20;2.80;;;12.50;99.90;;;;;;5076085;28;20044;-66
2022/04/28 10:17:48;;;;;;;11.40;3.35;;;12.60;99.90;;;;;;5092938;28;20080;-67
2022/04/28 10:20:37;;;;;;;11.70;2.95;;;12.70;99.90;;;;;;5076299;28;20036;-66
2022/04/28 10:23:07;;;;;;;9.43;2.85;;;12.70;99.90;;;;;;5093700;28;20682;-67
2022/04/28 10:34:16;;;;;;;8.85;2.83;;;13.40;99.90;;;;;;5110833;28;20050;-67
2022/04/28 10:36:56;;;;;;;10.27;3.25;;;13.50;99.90;;;;;;5113235;28;20483;-67
2022/04/28 10:39:54;;;;;;;6.55;2.25;;;13.70;99.90;;;;;;5114109;28;20039;-68
2022/04/28 10:42:21;;;;;;;7.53;2.40;;;13.80;99.90;;;;;;5101000;28;20109;-66
2022/04/28 10:44:54;;;;;;;6.93;2.70;;;13.80;99.90;;;;;;5114052;28;20487;-64
2022/04/28 10:47:34;;;;;;;6.47;2.33;;;14.00;99.90;;;;;;5114081;28;20545;-65
2022/04/28 10:50:01;;;;;;;8.05;1.95;;;14.30;99.90;;;;;;5113762;28;20048;-66
2022/04/28 10:52:27;;;;;;;5.15;2.30;;;14.60;99.90;;;;;;5113083;28;20459;-65
2022/04/28 10:54:54;;;;;;;6.32;1.98;;;14.60;99.90;;;;;;5114105;28;20038;-65
2022/04/28 10:57:29;;;;;;;7.22;2.55;;;14.90;99.90;;;;;;5112889;28;20387;-64
2022/04/28 10:59:55;;;;;;;8.27;2.63;;;15.10;99.90;;;;;;5114044;28;20043;-65
2022/04/28 11:02:23;;;;;;;7.43;2.63;;;15.10;99.90;;;;;;5110086;28;20134;-65
2022/04/28 11:05:01;;;;;;;8.50;2.30;;;15.10;99.90;;;;;;5112315;28;20079;-65
2022/04/28 11:07:30;;;;;;;6.97;2.40;;;15.00;99.90;;;;;;5112011;28;20046;-64
2022/04/28 11:10:01;;;;;;;6.82;2.33;;;15.00;99.90;;;;;;5112578;28;20372;-64
2022/04/28 11:12:36;;;;;;;10.73;2.95;;;15.00;99.90;;;;;;5112838;28;20138;-65
2022/04/28 11:15:06;;;;;;;9.45;2.30;;;15.30;99.90;;;;;;5112293;28;20048;-64
2022/04/28 11:17:38;;;;;;;6.78;2.35;;;15.50;99.90;;;;;;5112303;28;20096;-65
2022/04/28 11:20:12;;;;;;;8.32;3.17;;;15.80;99.90;;;;;;5095567;28;20044;-64
2022/04/28 11:22:52;;;;;;;7.97;3.05;;;16.00;99.90;;;;;;5113527;28;20067;-64
2022/04/28 11:25:20;;;;;;;4.32;2.20;;;16.10;99.90;;;;;;5113564;28;20036;-65
2022/04/28 11:27:48;;;;;;;8.00;2.60;;;16.10;99.90;;;;;;5113359;28;20096;-65
2022/04/28 11:30:21;;;;;;;6.78;2.90;;;15.80;99.90;;;;;;5112124;28;20072;-65
2022/04/28 11:32:57;;;;;;;7.70;2.55;;;15.80;99.90;;;;;;5111208;28;20553;-64
2022/04/28 11:35:30;;;;;;;5.78;2.30;;;16.40;99.90;;;;;;5112180;28;20090;-73
2022/04/28 11:37:57;;;;;;;9.15;2.38;;;16.80;99.90;;;;;;5113271;28;20044;-74
2022/04/28 11:40:24;;;;;;;9.48;3.13;;;16.80;99.90;;;;;;5113382;28;20043;-74
2022/04/28 11:42:59;;;;;;;8.35;2.75;;;16.50;99.90;;;;;;5113527;28;20140;-74
2022/04/28 11:45:26;;;;;;;7.88;2.80;;;16.20;99.90;;;;;;5111837;28;20044;-74
2022/04/28 11:47:56;;;;;;;8.45;3.50;;;16.00;99.90;;;;;;5113204;28;20552;-73
2022/04/28 11:50:26;;;;;;;8.38;3.30;;;15.70;99.90;;;;;;5112053;28;20126;-73
2022/04/28 11:53:05;;;;;;;8.27;2.85;;;15.50;99.90;;;;;;5111793;28;20043;-73
2022/04/28 11:55:35;;;;;;;8.55;2.85;;;15.40;99.90;;;;;;5113229;28;20051;-73
2022/04/28 11:58:02;;;;;;;7.95;2.63;;;15.40;99.90;;;;;;5111936;28;20036;-73
2022/04/28 12:00:34;;;;;;;7.10;2.92;;;15.40;99.90;;;;;;5095085;28;20404;-73
2022/04/28 12:03:01;;;;;;;8.85;3.10;;;15.70;99.90;;;;;;5110879;28;20399;-73
2022/04/28 12:05:27;;;;;;;8.55;3.30;;;16.10;99.90;;;;;;5111525;28;20043;-73
2022/04/28 12:07:54;;;;;;;9.82;3.35;;;16.60;99.90;;;;;;5112992;28;20516;-72
2022/04/28 12:16:16;;;;;;;8.93;3.33;;;17.20;99.90;;;;;;5113065;28;20114;-72
2022/04/28 12:21:37;;;;;;;8.43;3.10;;;17.20;99.90;;;;;;5116807;28;20471;-72
2022/04/28 12:24:18;;;;;;;12.38;3.30;;;17.20;99.90;;;;;;5116629;28;20036;-72
2022/04/28 12:26:47;;;;;;;11.20;5.93;;;17.00;99.90;;;;;;5115490;28;20484;-72
2022/04/28 12:29:17;;;;;;;8.50;3.40;;;16.70;99.90;;;;;;5115076;28;20115;-72
2022/04/28 12:31:43;;;;;;;;;;;16.60;99.90;;;;;;5103155;28;20051;-72
2022/04/28 12:34:25;;;;;;;11.98;4.43;;;16.50;99.90;;;;;;5098783;28;19916;-72
2022/04/28 12:36:56;;;;;;;8.20;3.80;;;16.60;99.90;;;;;;5110959;28;20163;-73
2022/04/28 12:39:26;;;;;;;8.85;4.10;;;16.70;99.90;;;;;;5104631;28;20048;-72
2022/04/28 12:41:53;;;;;;;9.45;3.50;;;16.90;99.90;;;;;;5107460;28;20048;-72
2022/04/28 12:44:20;;;;;;;10.82;3.67;;;17.00;99.90;;;;;;5109447;28;20075;-72
2022/04/28 12:46:46;;;;;;;9.13;3.83;;;17.10;99.90;;;;;;5115782;28;20050;-69
2022/04/28 12:49:16;;;;;;;6.97;3.35;;;16.90;99.90;;;;;;5114093;28;20491;-72
2022/04/28 12:51:44;;;;;;;10.32;3.80;;;16.60;99.90;;;;;;5115010;28;20345;-72
2022/04/28 12:54:16;;;;;;;9.85;3.78;;;16.30;99.90;;;;;;5113757;28;20061;-73
2022/04/28 12:56:44;;;;;;;12.05;4.38;;;15.90;99.90;;;;;;5114410;28;20032;-72
2022/04/28 12:59:16;;;;;;;7.63;3.40;;;15.60;99.90;;;;;;5095373;28;20514;-73
2022/04/28 13:01:46;;;;;;;9.05;3.88;;;15.50;99.90;;;;;;5106989;28;20044;-73
2022/04/28 13:04:23;;;;;;;10.43;4.22;;;15.40;99.90;;;;;;5112533;28;20135;-73
2022/04/28 13:06:50;;;;;;;10.02;4.28;;;15.70;99.90;;;;;;5114619;28;20035;-73
2022/04/28 13:09:17;;;;;;;12.95;4.70;;;16.00;99.90;;;;;;5113474;28;20430;-72
2022/04/28 13:11:45;;;;;;;10.43;4.55;;;16.20;99.90;;;;;;5114903;28;20047;-73
2022/04/28 13:14:13;;;;;;;8.75;4.18;;;16.10;99.90;;;;;;5114640;28;20135;-74
2022/04/28 13:16:39;;;;;;;11.90;4.68;;;15.90;99.90;;;;;;5114841;28;20043;-73
2022/04/28 13:19:06;;;;;;;9.85;4.22;;;15.70;99.90;;;;;;5114865;28;20074;-74
2022/04/28 13:21:34;;;;;;;8.00;3.83;;;15.70;99.90;;;;;;5114317;28;20101;-71
2022/04/28 13:24:00;;;;;;;7.30;3.97;;;15.70;99.90;;;;;;5114939;28;20035;-74
2022/04/28 13:26:27;;;;;;;10.20;4.00;;;15.60;99.90;;;;;;5114142;28;20047;-74